createdAt,value
2018-06-23T00:00:59.221Z,881.30
2018-06-23T00:01:59.190Z,831.40
2018-06-23T00:02:59.150Z,864.90
2018-06-23T00:03:59.135Z,853.20
2018-06-23T00:04:59.098Z,865.80
2018-06-23T00:05:59.077Z,867.70
2018-06-23T00:06:59.055Z,834.40
2018-06-23T00:07:59.026Z,832.30
2018-06-23T00:08:58.995Z,841.10
2018-06-23T00:09:58.975Z,888.50
2018-06-23T00:10:58.952Z,865.50
2018-06-23T00:11:58.925Z,878.70
2018-06-23T00:12:58.895Z,746.50
2018-06-23T00:13:58.871Z,785.00
2018-06-23T00:14:58.844Z,823.80
2018-06-23T00:15:58.822Z,817.80
2018-06-23T00:16:58.791Z,860.20
2018-06-23T00:17:58.767Z,812.60
2018-06-23T00:18:59.487Z,878.00
2018-06-23T00:19:59.898Z,881.40
2018-06-23T00:20:59.554Z,874.30
2018-06-23T00:21:59.271Z,881.90
2018-06-23T00:22:59.110Z,868.10
2018-06-23T00:23:59.489Z,884.40
2018-06-23T00:24:59.522Z,867.30
2018-06-23T00:25:59.531Z,875.90
2018-06-23T00:26:59.491Z,797.20
2018-06-23T00:27:59.302Z,721.70
2018-06-23T00:28:58.988Z,712.70
2018-06-23T00:29:59.462Z,849.20
2018-06-23T00:30:59.026Z,817.00
2018-06-23T00:31:59.028Z,822.90
2018-06-23T00:32:59.343Z,717.20
2018-06-23T00:33:59.320Z,796.50
2018-06-23T00:34:59.015Z,719.10
2018-06-23T00:35:59.028Z,799.10
2018-06-23T00:37:00.030Z,804.30
2018-06-23T00:37:58.899Z,724.30
2018-06-23T00:38:58.216Z,718.70
2018-06-23T00:39:58.197Z,732.50
2018-06-23T00:40:58.175Z,740.10
2018-06-23T00:41:58.887Z,736.60
2018-06-23T00:42:58.115Z,781.80
2018-06-23T00:43:58.107Z,812.10
2018-06-23T00:44:58.066Z,800.10
2018-06-23T00:45:58.041Z,812.80
2018-06-23T00:46:58.021Z,777.60
2018-06-23T00:47:57.984Z,773.20
2018-06-23T00:48:57.959Z,741.90
2018-06-23T00:49:57.933Z,739.00
2018-06-23T00:50:57.928Z,721.20
2018-06-23T00:51:57.885Z,745.10
2018-06-23T00:52:57.851Z,730.40
2018-06-23T00:53:58.619Z,711.30
2018-06-23T00:54:57.806Z,733.90
2018-06-23T00:55:57.772Z,713.10
2018-06-23T00:56:57.749Z,703.10
2018-06-23T00:57:57.728Z,746.80
2018-06-23T00:58:57.693Z,762.90
2018-06-23T00:59:57.677Z,712.50
2018-06-23T01:00:57.639Z,715.30
2018-06-23T01:01:57.620Z,743.50
2018-06-23T01:02:57.593Z,725.50
2018-06-23T01:03:57.568Z,730.30
2018-06-23T01:04:57.538Z,702.00
2018-06-23T01:05:57.520Z,764.70
2018-06-23T01:06:57.486Z,714.30
2018-06-23T01:07:57.461Z,762.00
2018-06-23T01:08:57.438Z,753.20
2018-06-23T01:09:57.408Z,723.30
2018-06-23T01:10:57.386Z,795.50
2018-06-23T01:11:57.358Z,757.90
2018-06-23T01:12:57.325Z,707.10
2018-06-23T01:13:57.305Z,739.70
2018-06-23T01:14:57.292Z,714.60
2018-06-23T01:15:57.254Z,739.10
2018-06-23T01:16:57.224Z,739.40
2018-06-23T01:17:57.212Z,781.20
2018-06-23T01:18:57.176Z,786.60
2018-06-23T01:19:57.153Z,818.50
2018-06-23T01:20:57.118Z,884.50
2018-06-23T01:21:57.098Z,885.30
2018-06-23T01:22:57.069Z,896.90
2018-06-23T01:23:57.041Z,883.10
2018-06-23T01:24:57.022Z,896.80
2018-06-23T01:25:56.988Z,898.80
2018-06-23T01:26:56.973Z,873.10
2018-06-23T01:27:56.957Z,881.60
2018-06-23T01:28:56.911Z,913.30
2018-06-23T01:29:56.889Z,911.30
2018-06-23T01:30:56.864Z,893.40
2018-06-23T01:31:56.840Z,893.40
2018-06-23T01:32:56.815Z,879.60
2018-06-23T01:33:56.778Z,909.60
2018-06-23T01:34:56.760Z,873.30
2018-06-23T01:35:56.728Z,854.20
2018-06-23T01:36:56.708Z,867.20
2018-06-23T01:37:56.685Z,838.50
2018-06-23T01:38:57.534Z,870.70
2018-06-23T01:39:56.945Z,869.80
2018-06-23T01:40:57.535Z,916.00
2018-06-23T01:41:57.543Z,884.40
2018-06-23T01:42:57.140Z,830.40
2018-06-23T01:43:57.043Z,854.80
2018-06-23T01:44:57.043Z,882.60
2018-06-23T01:45:56.845Z,889.30
2018-06-23T01:46:57.002Z,889.10
2018-06-23T01:47:57.036Z,891.30
2018-06-23T01:48:56.394Z,934.30
2018-06-23T01:49:56.362Z,910.60
2018-06-23T01:50:56.338Z,927.20
2018-06-23T01:51:56.317Z,921.50
2018-06-23T01:52:56.283Z,885.20
2018-06-23T01:53:56.262Z,920.40
2018-06-23T01:54:56.256Z,909.70
2018-06-23T01:55:56.206Z,881.20
2018-06-23T01:56:56.185Z,908.60
2018-06-23T01:57:56.156Z,906.20
2018-06-23T01:58:56.183Z,937.20
2018-06-23T01:59:56.104Z,909.70
2018-06-23T02:00:56.074Z,906.20
2018-06-23T02:01:56.054Z,924.70
2018-06-23T02:02:56.020Z,922.30
2018-06-23T02:03:56.003Z,926.30
2018-06-23T02:04:55.972Z,901.20
2018-06-23T02:05:55.948Z,905.20
2018-06-23T02:06:55.917Z,924.90
2018-06-23T02:07:55.896Z,874.70
2018-06-23T02:08:55.870Z,867.80
2018-06-23T02:09:55.842Z,908.50
2018-06-23T02:10:55.816Z,920.40
2018-06-23T02:11:55.787Z,924.10
2018-06-23T02:12:55.762Z,886.20
2018-06-23T02:13:55.742Z,939.50
2018-06-23T02:14:55.704Z,842.70
2018-06-23T02:16:55.661Z,793.80
2018-06-23T02:17:55.627Z,920.80
2018-06-23T02:18:55.621Z,921.90
2018-06-23T02:19:55.574Z,842.90
2018-06-23T02:20:55.557Z,795.60
2018-06-23T02:21:55.529Z,841.50
2018-06-23T02:22:55.494Z,915.50
2018-06-23T02:23:55.473Z,920.10
2018-06-23T02:24:55.448Z,907.30
2018-06-23T02:25:55.419Z,882.00
2018-06-23T02:26:55.400Z,858.30
2018-06-23T02:27:55.370Z,873.70
2018-06-23T02:28:55.340Z,904.20
2018-06-23T02:29:55.313Z,877.80
2018-06-23T02:30:55.296Z,877.80
2018-06-23T02:31:55.259Z,868.40
2018-06-23T02:32:55.239Z,863.50
2018-06-23T02:33:55.216Z,843.60
2018-06-23T02:34:55.186Z,861.10
2018-06-23T02:35:55.165Z,895.80
2018-06-23T02:36:55.130Z,850.80
2018-06-23T02:37:55.103Z,931.60
2018-06-23T02:38:55.539Z,911.40
2018-06-23T02:39:55.423Z,887.40
2018-06-23T02:40:55.026Z,938.30
2018-06-23T02:41:55.006Z,884.70
2018-06-23T02:42:54.973Z,922.80
2018-06-23T02:43:54.947Z,923.60
2018-06-23T02:44:54.932Z,886.50
2018-06-23T02:45:54.901Z,880.50
2018-06-23T02:46:54.866Z,910.80
2018-06-23T02:47:54.845Z,904.40
2018-06-23T02:48:54.819Z,900.80
2018-06-23T02:49:54.788Z,904.00
2018-06-23T02:50:54.771Z,883.90
2018-06-23T02:51:54.741Z,918.20
2018-06-23T02:52:54.712Z,926.50
2018-06-23T02:53:54.686Z,882.00
2018-06-23T02:54:54.662Z,881.90
2018-06-23T02:55:54.634Z,889.80
2018-06-23T02:56:54.610Z,890.10
2018-06-23T02:57:54.585Z,828.90
2018-06-23T02:58:54.572Z,880.60
2018-06-23T02:59:54.539Z,857.90
2018-06-23T03:00:54.553Z,851.40
2018-06-23T03:01:54.493Z,898.20
2018-06-23T03:02:54.453Z,844.70
2018-06-23T03:03:54.422Z,924.60
2018-06-23T03:04:54.452Z,901.40
2018-06-23T03:05:54.373Z,815.60
2018-06-23T03:06:54.350Z,823.40
2018-06-23T03:07:54.336Z,854.80
2018-06-23T03:08:55.054Z,877.10
2018-06-23T03:09:55.051Z,827.70
2018-06-23T03:10:55.058Z,867.00
2018-06-23T03:11:55.058Z,837.40
2018-06-23T03:12:55.102Z,869.20
2018-06-23T03:13:55.059Z,894.80
2018-06-23T03:14:55.052Z,852.50
2018-06-23T03:15:55.022Z,880.20
2018-06-23T03:16:55.016Z,847.50
2018-06-23T03:17:55.142Z,886.90
2018-06-23T03:18:54.552Z,841.90
2018-06-23T03:19:54.556Z,891.60
2018-06-23T03:20:54.522Z,877.00
2018-06-23T03:21:54.219Z,908.00
2018-06-23T03:22:54.556Z,924.10
2018-06-23T03:23:55.547Z,907.10
2018-06-23T03:24:55.436Z,939.80
2018-06-23T03:25:54.561Z,918.20
2018-06-23T03:26:53.820Z,934.30
2018-06-23T03:27:53.801Z,946.00
2018-06-23T03:28:53.766Z,932.90
2018-06-23T03:29:53.737Z,927.00
2018-06-23T03:30:53.723Z,923.50
2018-06-23T03:31:53.687Z,887.60
2018-06-23T03:32:53.668Z,904.20
2018-06-23T03:33:53.633Z,920.60
2018-06-23T03:34:53.615Z,904.10
2018-06-23T03:35:53.582Z,938.90
2018-06-23T03:36:53.556Z,884.40
2018-06-23T03:37:53.536Z,895.20
2018-06-23T03:38:53.994Z,897.80
2018-06-23T03:39:54.063Z,916.20
2018-06-23T03:40:54.059Z,891.60
2018-06-23T03:41:54.061Z,915.30
2018-06-23T03:42:53.964Z,899.10
2018-06-23T03:43:53.391Z,911.20
2018-06-23T03:44:53.354Z,908.90
2018-06-23T03:45:53.322Z,892.30
2018-06-23T03:46:53.300Z,893.30
2018-06-23T03:47:53.281Z,894.60
2018-06-23T03:48:53.240Z,875.30
2018-06-23T03:49:53.225Z,921.70
2018-06-23T03:50:53.195Z,895.60
2018-06-23T03:51:53.171Z,876.20
2018-06-23T03:52:53.144Z,890.20
2018-06-23T03:53:53.111Z,940.90
2018-06-23T03:54:53.843Z,874.10
2018-06-23T03:55:53.064Z,869.60
2018-06-23T03:56:53.033Z,932.50
2018-06-23T03:57:53.012Z,869.40
2018-06-23T03:58:52.980Z,876.60
2018-06-23T03:59:52.956Z,900.30
2018-06-23T04:00:52.951Z,922.10
2018-06-23T04:01:52.902Z,926.80
2018-06-23T04:02:52.880Z,917.80
2018-06-23T04:03:52.852Z,914.10
2018-06-23T04:04:52.823Z,932.40
2018-06-23T04:05:52.801Z,917.50
2018-06-23T04:06:52.771Z,915.50
2018-06-23T04:07:52.743Z,909.60
2018-06-23T04:08:52.723Z,909.10
2018-06-23T04:09:52.690Z,918.10
2018-06-23T04:10:52.669Z,914.40
2018-06-23T04:11:52.645Z,927.10
2018-06-23T04:12:52.610Z,922.90
2018-06-23T04:13:52.596Z,917.70
2018-06-23T04:14:52.565Z,912.80
2018-06-23T04:15:52.543Z,919.10
2018-06-23T04:16:52.569Z,913.80
2018-06-23T04:17:52.486Z,918.00
2018-06-23T04:18:52.456Z,920.00
2018-06-23T04:19:52.426Z,919.70
2018-06-23T04:20:52.410Z,914.40
2018-06-23T04:21:52.375Z,927.00
2018-06-23T04:22:52.356Z,906.10
2018-06-23T04:23:52.327Z,918.20
2018-06-23T04:24:52.324Z,911.10
2018-06-23T04:25:52.279Z,913.30
2018-06-23T04:26:52.250Z,919.90
2018-06-23T04:27:52.229Z,924.60
2018-06-23T04:28:52.196Z,922.90
2018-06-23T04:29:52.163Z,939.50
2018-06-23T04:30:52.146Z,934.40
2018-06-23T04:31:52.112Z,946.60
2018-06-23T04:32:52.099Z,921.20
2018-06-23T04:33:52.092Z,921.50
2018-06-23T04:34:52.034Z,925.80
2018-06-23T04:35:52.016Z,940.50
2018-06-23T04:36:51.993Z,924.70
2018-06-23T04:37:51.958Z,941.20
2018-06-23T04:38:51.934Z,924.00
2018-06-23T04:39:51.917Z,917.80
2018-06-23T04:40:51.875Z,913.60
2018-06-23T04:41:51.861Z,920.00
2018-06-23T04:42:51.838Z,916.10
2018-06-23T04:43:51.803Z,908.10
2018-06-23T04:44:51.775Z,916.20
2018-06-23T04:45:51.754Z,896.00
2018-06-23T04:46:51.720Z,912.70
2018-06-23T04:47:51.696Z,915.90
2018-06-23T04:48:51.673Z,914.80
2018-06-23T04:49:51.647Z,902.10
2018-06-23T04:50:51.619Z,940.40
2018-06-23T04:51:51.595Z,875.50
2018-06-23T04:52:51.569Z,883.10
2018-06-23T04:53:51.544Z,885.20
2018-06-23T04:54:51.532Z,859.60
2018-06-23T04:55:51.500Z,860.30
2018-06-23T04:56:51.461Z,880.10
2018-06-23T04:57:51.458Z,885.30
2018-06-23T04:58:51.403Z,876.80
2018-06-23T04:59:51.399Z,877.40
2018-06-23T05:00:51.359Z,875.30
2018-06-23T05:01:51.330Z,888.20
2018-06-23T05:02:51.311Z,881.90
2018-06-23T05:03:51.279Z,903.50
2018-06-23T05:04:51.250Z,903.80
2018-06-23T05:05:51.227Z,896.30
2018-06-23T05:06:51.199Z,883.60
2018-06-23T05:07:51.173Z,852.50
2018-06-23T05:08:51.148Z,812.50
2018-06-23T05:09:51.121Z,824.70
2018-06-23T05:10:51.092Z,827.50
2018-06-23T05:11:51.071Z,830.40
2018-06-23T05:12:51.043Z,856.90
2018-06-23T05:13:51.030Z,918.60
2018-06-23T05:14:50.996Z,867.40
2018-06-23T05:15:50.962Z,851.40
2018-06-23T05:16:50.942Z,812.20
2018-06-23T05:17:50.910Z,824.40
2018-06-23T05:18:50.888Z,794.60
2018-06-23T05:19:50.867Z,832.20
2018-06-23T05:20:50.834Z,855.20
2018-06-23T05:21:50.810Z,848.50
2018-06-23T05:22:50.794Z,834.50
2018-06-23T05:23:50.753Z,824.60
2018-06-23T05:24:50.737Z,836.30
2018-06-23T05:25:50.728Z,826.60
2018-06-23T05:26:50.682Z,871.10
2018-06-23T05:27:50.659Z,909.10
2018-06-23T05:28:50.646Z,885.90
2018-06-23T05:29:50.605Z,859.50
2018-06-23T05:30:50.574Z,829.50
2018-06-23T05:31:50.551Z,796.20
2018-06-23T05:32:50.522Z,780.70
2018-06-23T05:33:50.493Z,813.40
2018-06-23T05:34:50.478Z,818.00
2018-06-23T05:35:50.441Z,876.60
2018-06-23T05:36:50.448Z,802.60
2018-06-23T05:37:50.427Z,791.40
2018-06-23T05:38:50.362Z,849.80
2018-06-23T05:39:50.345Z,782.80
2018-06-23T05:40:50.309Z,776.00
2018-06-23T05:41:50.292Z,794.10
2018-06-23T05:42:50.260Z,804.70
2018-06-23T05:43:50.239Z,791.30
2018-06-23T05:44:50.231Z,784.60
2018-06-23T05:45:50.180Z,829.00
2018-06-23T05:46:50.157Z,792.20
2018-06-23T05:47:50.131Z,806.60
2018-06-23T05:48:50.108Z,797.90
2018-06-23T05:49:50.085Z,815.80
2018-06-23T05:50:50.051Z,834.20
2018-06-23T05:51:50.027Z,914.20
2018-06-23T05:52:50.005Z,852.90
2018-06-23T05:53:49.975Z,875.60
2018-06-23T05:54:49.954Z,856.80
2018-06-23T05:55:49.926Z,855.70
2018-06-23T05:56:49.899Z,829.40
2018-06-23T05:57:49.867Z,848.40
2018-06-23T05:58:49.846Z,846.50
2018-06-23T05:59:49.834Z,861.70
2018-06-23T06:00:49.811Z,840.00
2018-06-23T06:01:49.772Z,881.00
2018-06-23T06:02:49.750Z,885.00
2018-06-23T06:03:49.721Z,932.70
2018-06-23T06:04:49.685Z,893.50
2018-06-23T06:05:49.661Z,902.20
2018-06-23T06:06:49.643Z,878.80
2018-06-23T06:07:49.612Z,887.60
2018-06-23T06:08:49.587Z,847.20
2018-06-23T06:09:49.567Z,835.40
2018-06-23T06:10:49.530Z,850.20
2018-06-23T06:11:49.621Z,858.60
2018-06-23T06:12:49.482Z,879.20
2018-06-23T06:13:49.461Z,886.20
2018-06-23T06:14:49.446Z,948.50
2018-06-23T06:15:49.401Z,906.00
2018-06-23T06:16:49.372Z,890.60
2018-06-23T06:17:49.352Z,897.10
2018-06-23T06:18:49.325Z,882.80
2018-06-23T06:19:49.302Z,838.00
2018-06-23T06:20:49.271Z,817.50
2018-06-23T06:21:49.246Z,879.90
2018-06-23T06:22:49.222Z,853.10
2018-06-23T06:23:49.217Z,795.50
2018-06-23T06:24:49.168Z,847.10
2018-06-23T06:25:49.144Z,836.00
2018-06-23T06:26:49.114Z,901.90
2018-06-23T06:27:49.087Z,882.00
2018-06-23T06:28:49.068Z,818.80
2018-06-23T06:29:49.036Z,768.30
2018-06-23T06:30:49.017Z,922.30
2018-06-23T06:31:48.989Z,829.00
2018-06-23T06:32:48.957Z,1099.10
2018-06-23T06:33:48.936Z,1173.70
2018-06-23T06:34:48.903Z,1160.40
2018-06-23T06:35:48.882Z,1255.50
2018-06-23T06:36:48.860Z,1256.90
2018-06-23T06:37:48.833Z,1277.60
2018-06-23T06:38:48.800Z,1346.20
2018-06-23T06:39:48.778Z,1240.20
2018-06-23T06:40:48.748Z,1278.80
2018-06-23T06:41:48.721Z,1263.80
2018-06-23T06:42:48.698Z,1224.40
2018-06-23T06:43:48.669Z,1275.60
2018-06-23T06:44:48.648Z,1247.60
2018-06-23T06:45:48.633Z,1257.50
2018-06-23T06:46:48.588Z,1093.50
2018-06-23T06:47:48.569Z,1126.80
2018-06-23T06:48:48.544Z,1344.80
2018-06-23T06:49:48.510Z,1412.20
2018-06-23T06:50:48.514Z,1373.80
2018-06-23T06:51:48.462Z,1120.80
2018-06-23T06:52:48.443Z,1146.10
2018-06-23T06:53:48.415Z,1133.60
2018-06-23T06:54:48.394Z,1248.60
2018-06-23T06:55:48.363Z,1081.40
2018-06-23T06:56:48.327Z,1144.60
2018-06-23T06:57:48.301Z,1038.10
2018-06-23T06:58:48.283Z,981.30
2018-06-23T06:59:48.252Z,1172.80
2018-06-23T07:00:48.245Z,899.10
2018-06-23T07:01:48.203Z,835.80
2018-06-23T07:02:48.182Z,1006.60
2018-06-23T07:03:48.152Z,945.10
2018-06-23T07:04:48.125Z,977.80
2018-06-23T07:05:48.102Z,916.60
2018-06-23T07:06:48.066Z,958.60
2018-06-23T07:07:48.042Z,890.10
2018-06-23T07:08:48.045Z,797.80
2018-06-23T07:09:47.993Z,770.20
2018-06-23T07:10:47.962Z,863.70
2018-06-23T07:11:47.936Z,847.20
2018-06-23T07:12:47.916Z,801.70
2018-06-23T07:13:47.885Z,863.30
2018-06-23T07:14:47.863Z,767.50
2018-06-23T07:15:47.842Z,745.80
2018-06-23T07:16:47.806Z,731.00
2018-06-23T07:17:47.786Z,739.00
2018-06-23T07:18:47.757Z,751.90
2018-06-23T07:19:47.737Z,734.20
2018-06-23T07:20:47.704Z,760.70
2018-06-23T07:21:47.711Z,771.40
2018-06-23T07:22:47.689Z,807.60
2018-06-23T07:23:47.793Z,840.30
2018-06-23T07:24:47.624Z,835.90
2018-06-23T07:25:47.606Z,865.20
2018-06-23T07:26:47.592Z,829.90
2018-06-23T07:27:47.527Z,732.80
2018-06-23T07:28:47.493Z,818.40
2018-06-23T07:29:47.473Z,884.40
2018-06-23T07:30:47.484Z,963.10
2018-06-23T07:31:47.430Z,909.90
2018-06-23T07:32:47.405Z,938.10
2018-06-23T07:33:47.369Z,913.30
2018-06-23T07:34:47.451Z,1013.60
2018-06-23T07:35:47.319Z,935.80
2018-06-23T07:36:47.287Z,984.10
2018-06-23T07:37:47.262Z,976.00
2018-06-23T07:38:47.238Z,988.30
2018-06-23T07:39:47.211Z,970.00
2018-06-23T07:40:47.227Z,951.70
2018-06-23T07:41:47.160Z,941.00
2018-06-23T07:42:47.164Z,908.40
2018-06-23T07:43:47.110Z,859.50
2018-06-23T07:44:47.079Z,885.90
2018-06-23T07:45:47.054Z,910.10
2018-06-23T07:46:47.042Z,931.90
2018-06-23T07:47:47.003Z,877.90
2018-06-23T07:48:46.979Z,913.80
2018-06-23T07:49:46.960Z,955.40
2018-06-23T07:50:46.953Z,870.20
2018-06-23T07:51:46.900Z,878.90
2018-06-23T07:52:46.877Z,794.40
2018-06-23T07:53:46.850Z,713.40
2018-06-23T07:54:46.822Z,773.50
2018-06-23T07:55:46.801Z,674.20
2018-06-23T07:56:46.771Z,614.20
2018-06-23T07:57:46.751Z,612.20
2018-06-23T07:58:46.715Z,741.00
2018-06-23T07:59:46.698Z,595.30
2018-06-23T08:00:46.667Z,459.10
2018-06-23T08:01:46.648Z,387.00
2018-06-23T08:02:46.625Z,475.10
2018-06-23T08:03:46.591Z,360.50
2018-06-23T08:04:46.572Z,362.00
2018-06-23T08:05:46.541Z,348.40
2018-06-23T08:06:46.513Z,363.70
2018-06-23T08:07:46.492Z,463.70
2018-06-23T08:08:46.467Z,434.00
2018-06-23T08:09:46.436Z,402.10
2018-06-23T08:10:46.411Z,412.30
2018-06-23T08:11:46.454Z,523.10
2018-06-23T08:12:46.362Z,591.10
2018-06-23T08:13:46.336Z,642.80
2018-06-23T08:14:46.308Z,636.60
2018-06-23T08:15:46.295Z,578.90
2018-06-23T08:16:46.276Z,616.20
2018-06-23T08:17:46.237Z,574.20
2018-06-23T08:18:46.211Z,578.20
2018-06-23T08:19:46.190Z,515.20
2018-06-23T08:20:46.167Z,481.90
2018-06-23T08:21:46.129Z,459.30
2018-06-23T08:22:46.102Z,592.00
2018-06-23T08:23:46.085Z,508.60
2018-06-23T08:24:46.080Z,595.80
2018-06-23T08:25:46.026Z,471.50
2018-06-23T08:26:46.021Z,530.50
2018-06-23T08:27:45.973Z,424.80
2018-06-23T08:28:45.958Z,398.80
2018-06-23T08:29:45.933Z,375.50
2018-06-23T08:30:45.904Z,417.90
2018-06-23T08:31:45.892Z,402.50
2018-06-23T08:32:45.857Z,488.90
2018-06-23T08:33:45.830Z,462.20
2018-06-23T08:34:45.804Z,362.70
2018-06-23T08:35:45.779Z,454.80
2018-06-23T08:36:45.744Z,412.00
2018-06-23T08:37:45.753Z,389.60
2018-06-23T08:38:45.700Z,420.70
2018-06-23T08:39:45.670Z,458.00
2018-06-23T08:40:45.643Z,343.70
2018-06-23T08:41:45.624Z,376.50
2018-06-23T08:42:45.603Z,315.10
2018-06-23T08:43:45.603Z,293.30
2018-06-23T08:44:45.541Z,359.20
2018-06-23T08:45:45.521Z,279.70
2018-06-23T08:46:45.495Z,381.90
2018-06-23T08:47:45.472Z,407.00
2018-06-23T08:48:45.438Z,510.20
2018-06-23T08:49:45.418Z,532.00
2018-06-23T08:50:45.389Z,528.10
2018-06-23T08:51:45.363Z,463.50
2018-06-23T08:52:45.356Z,506.90
2018-06-23T08:53:45.316Z,430.40
2018-06-23T08:54:45.306Z,346.10
2018-06-23T08:55:45.261Z,387.40
2018-06-23T08:56:45.240Z,339.40
2018-06-23T08:57:45.213Z,341.80
2018-06-23T08:58:45.184Z,291.50
2018-06-23T08:59:45.166Z,425.50
2018-06-23T09:00:45.131Z,481.60
2018-06-23T09:01:45.113Z,399.90
2018-06-23T09:02:45.136Z,418.60
2018-06-23T09:03:45.068Z,521.60
2018-06-23T09:04:45.037Z,514.60
2018-06-23T09:05:45.014Z,540.50
2018-06-23T09:06:44.980Z,405.40
2018-06-23T09:07:44.956Z,382.90
2018-06-23T09:08:44.933Z,468.20
2018-06-23T09:09:44.914Z,508.30
2018-06-23T09:10:44.894Z,516.10
2018-06-23T09:11:44.859Z,472.60
2018-06-23T09:12:44.831Z,464.80
2018-06-23T09:13:44.806Z,399.00
2018-06-23T09:14:44.784Z,290.20
2018-06-23T09:15:44.751Z,445.10
2018-06-23T09:16:44.771Z,372.70
2018-06-23T09:17:44.702Z,449.00
2018-06-23T09:18:44.681Z,421.00
2018-06-23T09:19:44.719Z,372.70
2018-06-23T09:20:44.632Z,324.40
2018-06-23T09:21:44.607Z,275.90
2018-06-23T09:22:44.574Z,344.10
2018-06-23T09:23:44.557Z,290.50
2018-06-23T09:24:44.526Z,324.10
2018-06-23T09:25:44.534Z,385.00
2018-06-23T09:26:44.483Z,400.20
2018-06-23T09:27:44.453Z,454.20
2018-06-23T09:28:44.429Z,410.50
2018-06-23T09:29:44.405Z,488.80
2018-06-23T09:30:44.371Z,468.00
2018-06-23T09:31:44.350Z,495.60
2018-06-23T09:32:44.326Z,435.00
2018-06-23T09:33:44.299Z,422.80
2018-06-23T09:34:44.274Z,386.40
2018-06-23T09:35:44.254Z,377.00
2018-06-23T09:36:44.228Z,279.30
2018-06-23T09:37:44.206Z,311.60
2018-06-23T09:38:44.169Z,340.40
2018-06-23T09:39:44.147Z,388.10
2018-06-23T09:40:44.123Z,306.00
2018-06-23T09:41:44.099Z,411.00
2018-06-23T09:42:44.073Z,384.60
2018-06-23T09:43:44.053Z,510.40
2018-06-23T09:44:44.313Z,405.90
2018-06-23T09:45:44.037Z,443.00
2018-06-23T09:46:43.990Z,431.20
2018-06-23T09:47:43.943Z,336.40
2018-06-23T09:48:43.921Z,401.00
2018-06-23T09:49:43.904Z,422.30
2018-06-23T09:50:43.872Z,364.70
2018-06-23T09:51:43.853Z,468.30
2018-06-23T09:52:43.818Z,481.50
2018-06-23T09:53:43.799Z,303.20
2018-06-23T09:54:43.776Z,307.30
2018-06-23T09:55:43.800Z,356.90
2018-06-23T09:56:43.734Z,338.50
2018-06-23T09:57:43.694Z,402.60
2018-06-23T09:58:43.673Z,261.40
2018-06-23T09:59:43.651Z,353.20
2018-06-23T10:00:43.622Z,440.50
2018-06-23T10:01:43.602Z,451.20
2018-06-23T10:02:43.570Z,503.20
2018-06-23T10:03:43.547Z,496.50
2018-06-23T10:04:43.518Z,463.30
2018-06-23T10:05:43.503Z,679.20
2018-06-23T10:06:43.619Z,585.00
2018-06-23T10:07:43.444Z,715.70
2018-06-23T10:08:43.426Z,658.60
2018-06-23T10:09:43.401Z,704.80
2018-06-23T10:10:43.372Z,771.60
2018-06-23T10:11:43.352Z,763.50
2018-06-23T10:12:43.324Z,694.20
2018-06-23T10:13:43.340Z,570.20
2018-06-23T10:14:43.270Z,609.10
2018-06-23T10:15:43.248Z,611.40
2018-06-23T10:16:43.220Z,695.40
2018-06-23T10:17:43.199Z,675.60
2018-06-23T10:18:43.200Z,668.00
2018-06-23T10:19:43.144Z,645.80
2018-06-23T10:20:43.128Z,684.40
2018-06-23T10:21:43.095Z,704.00
2018-06-23T10:22:43.096Z,686.00
2018-06-23T10:23:43.043Z,709.80
2018-06-23T10:24:43.024Z,736.80
2018-06-23T10:25:42.995Z,744.70
2018-06-23T10:26:42.975Z,647.10
2018-06-23T10:27:42.943Z,648.70
2018-06-23T10:28:42.936Z,689.80
2018-06-23T10:29:42.890Z,682.00
2018-06-23T10:30:42.877Z,676.10
2018-06-23T10:31:42.844Z,720.10
2018-06-23T10:32:42.823Z,642.30
2018-06-23T10:33:42.796Z,660.70
2018-06-23T10:34:42.767Z,550.10
2018-06-23T10:35:42.745Z,571.50
2018-06-23T10:36:42.724Z,624.40
2018-06-23T10:37:42.692Z,587.40
2018-06-23T10:38:42.676Z,535.50
2018-06-23T10:39:42.649Z,498.10
2018-06-23T10:40:42.627Z,552.00
2018-06-23T10:41:42.600Z,479.50
2018-06-23T10:42:42.568Z,596.20
2018-06-23T10:43:42.545Z,605.00
2018-06-23T10:44:42.525Z,638.80
2018-06-23T10:45:42.494Z,589.80
2018-06-23T10:46:42.487Z,645.10
2018-06-23T10:47:42.444Z,726.00
2018-06-23T10:48:42.423Z,721.70
2018-06-23T10:49:42.398Z,661.10
2018-06-23T10:50:42.370Z,595.20
2018-06-23T10:51:42.349Z,518.10
2018-06-23T10:52:42.319Z,481.30
2018-06-23T10:53:42.302Z,599.00
2018-06-23T10:54:42.268Z,521.10
2018-06-23T10:55:42.263Z,553.90
2018-06-23T10:56:42.221Z,543.20
2018-06-23T10:57:42.206Z,571.40
2018-06-23T10:58:42.178Z,608.90
2018-06-23T10:59:42.144Z,654.40
2018-06-23T11:00:42.128Z,707.50
2018-06-23T11:01:42.097Z,673.50
2018-06-23T11:02:42.078Z,541.00
2018-06-23T11:03:42.047Z,542.30
2018-06-23T11:04:42.096Z,594.10
2018-06-23T11:05:42.008Z,694.40
2018-06-23T11:06:41.969Z,612.90
2018-06-23T11:07:41.954Z,728.60
2018-06-23T11:08:41.926Z,524.70
2018-06-23T11:09:41.893Z,657.00
2018-06-23T11:10:41.881Z,609.30
2018-06-23T11:11:41.846Z,480.50
2018-06-23T11:12:41.830Z,586.90
2018-06-23T11:13:41.807Z,501.60
2018-06-23T11:14:41.773Z,629.00
2018-06-23T11:15:41.755Z,666.20
2018-06-23T11:16:41.723Z,694.60
2018-06-23T11:17:41.706Z,755.80
2018-06-23T11:18:41.678Z,626.90
2018-06-23T11:19:41.651Z,660.40
2018-06-23T11:20:41.623Z,727.70
2018-06-23T11:21:41.601Z,661.50
2018-06-23T11:22:41.582Z,631.80
2018-06-23T11:23:41.552Z,587.80
2018-06-23T11:24:41.533Z,444.30
2018-06-23T11:25:41.502Z,675.00
2018-06-23T11:26:41.481Z,707.20
2018-06-23T11:27:41.458Z,710.80
2018-06-23T11:28:41.428Z,789.80
2018-06-23T11:29:41.406Z,792.10
2018-06-23T11:30:41.378Z,749.70
2018-06-23T11:31:41.352Z,552.80
2018-06-23T11:32:41.335Z,677.20
2018-06-23T11:33:41.308Z,741.80
2018-06-23T11:34:41.285Z,544.90
2018-06-23T11:35:41.252Z,567.80
2018-06-23T11:36:41.234Z,515.70
2018-06-23T11:37:41.206Z,602.80
2018-06-23T11:38:41.182Z,566.80
2018-06-23T11:39:41.158Z,529.70
2018-06-23T11:40:41.134Z,552.90
2018-06-23T11:41:41.111Z,670.70
2018-06-23T11:42:41.080Z,699.90
2018-06-23T11:43:41.060Z,770.10
2018-06-23T11:44:41.032Z,727.10
2018-06-23T11:45:41.013Z,733.40
2018-06-23T11:46:41.042Z,599.90
2018-06-23T11:47:40.961Z,662.30
2018-06-23T11:48:40.937Z,571.30
2018-06-23T11:49:40.910Z,618.60
2018-06-23T11:50:40.886Z,543.90
2018-06-23T11:51:40.876Z,636.40
2018-06-23T11:52:40.850Z,395.70
2018-06-23T11:53:40.822Z,481.30
2018-06-23T11:54:40.783Z,523.60
2018-06-23T11:55:40.756Z,421.40
2018-06-23T11:56:40.742Z,509.10
2018-06-23T11:57:40.764Z,567.70
2018-06-23T11:58:40.689Z,606.10
2018-06-23T11:59:40.671Z,415.00
2018-06-23T12:00:40.643Z,315.30
2018-06-23T12:01:40.617Z,378.20
2018-06-23T12:02:40.600Z,378.90
2018-06-23T12:03:40.604Z,390.10
2018-06-23T12:04:40.545Z,686.40
2018-06-23T12:05:40.517Z,734.20
2018-06-23T12:06:40.490Z,815.60
2018-06-23T12:07:40.469Z,795.70
2018-06-23T12:08:40.440Z,787.10
2018-06-23T12:09:40.417Z,688.60
2018-06-23T12:10:40.395Z,669.80
2018-06-23T12:11:40.368Z,735.90
2018-06-23T12:12:40.349Z,830.00
2018-06-23T12:13:40.322Z,691.60
2018-06-23T12:14:40.297Z,749.10
2018-06-23T12:15:40.269Z,777.20
2018-06-23T12:16:40.261Z,646.10
2018-06-23T12:17:40.227Z,692.80
2018-06-23T12:18:40.195Z,705.10
2018-06-23T12:19:40.179Z,692.30
2018-06-23T12:20:40.149Z,680.60
2018-06-23T12:21:40.131Z,652.40
2018-06-23T12:22:40.102Z,675.50
2018-06-23T12:23:40.078Z,557.30
2018-06-23T12:24:40.047Z,672.30
2018-06-23T12:25:40.031Z,694.50
2018-06-23T12:26:40.016Z,682.50
2018-06-23T12:27:39.973Z,534.80
2018-06-23T12:28:39.959Z,576.20